sensor_id;sensor_type;location;lat;lon;timestamp;pressure;altitude;pressure_sealevel;temperature;humidity
55456;BME280;63021;52.836;6.376;2023-05-20T00:00:23;102733.09;;;11.77;58.96
55456;BME280;63021;52.836;6.376;2023-05-20T00:02:49;102728.59;;;11.77;59.40
55456;BME280;63021;52.836;6.376;2023-05-20T00:05:14;102727.88;;;11.75;59.54
55456;BME280;63021;52.836;6.376;2023-05-20T00:07:40;102722.63;;;11.74;59.49
55456;BME280;63021;52.836;6.376;2023-05-20T00:10:05;102726.38;;;11.71;59.37
55456;BME280;63021;52.836;6.376;2023-05-20T00:12:31;102723.06;;;11.68;59.45
55456;BME280;63021;52.836;6.376;2023-05-20T00:14:56;102728.38;;;11.68;59.01
55456;BME280;63021;52.836;6.376;2023-05-20T00:17:22;102723.28;;;11.65;59.34
55456;BME280;63021;52.836;6.376;2023-05-20T00:19:48;102734.88;;;11.64;59.90
55456;BME280;63021;52.836;6.376;2023-05-20T00:22:13;102736.72;;;11.63;59.49
55456;BME280;63021;52.836;6.376;2023-05-20T00:24:38;102734.16;;;11.61;59.48
55456;BME280;63021;52.836;6.376;2023-05-20T00:27:04;102736.09;;;11.59;59.95
55456;BME280;63021;52.836;6.376;2023-05-20T00:29:29;102725.63;;;11.56;59.75
55456;BME280;63021;52.836;6.376;2023-05-20T00:31:55;102733.63;;;11.56;60.62
55456;BME280;63021;52.836;6.376;2023-05-20T00:34:20;102734.59;;;11.55;60.42
55456;BME280;63021;52.836;6.376;2023-05-20T00:36:45;102731.16;;;11.53;60.39
55456;BME280;63021;52.836;6.376;2023-05-20T00:39:11;102725.84;;;11.53;60.70
55456;BME280;63021;52.836;6.376;2023-05-20T00:41:36;102721.59;;;11.51;60.57
55456;BME280;63021;52.836;6.376;2023-05-20T00:44:03;102722.31;;;11.53;60.04
55456;BME280;63021;52.836;6.376;2023-05-20T00:46:28;102717.09;;;11.51;60.56
55456;BME280;63021;52.836;6.376;2023-05-20T00:48:54;102709.31;;;11.48;60.28
55456;BME280;63021;52.836;6.376;2023-05-20T00:51:20;102706.66;;;11.48;60.35
55456;BME280;63021;52.836;6.376;2023-05-20T00:53:45;102701.44;;;11.47;60.44
55456;BME280;63021;52.836;6.376;2023-05-20T00:56:12;102706.75;;;11.47;61.13
55456;BME280;63021;52.836;6.376;2023-05-20T00:58:37;102710.47;;;11.44;60.87
55456;BME280;63021;52.836;6.376;2023-05-20T01:01:04;102712.38;;;11.42;60.86
55456;BME280;63021;52.836;6.376;2023-05-20T01:03:30;102719.66;;;11.40;61.11
55456;BME280;63021;52.836;6.376;2023-05-20T01:05:55;102711.66;;;11.40;61.16
55456;BME280;63021;52.836;6.376;2023-05-20T01:08:22;102709.09;;;11.38;60.52
55456;BME280;63021;52.836;6.376;2023-05-20T01:10:51;102707.38;;;11.37;61.00
55456;BME280;63021;52.836;6.376;2023-05-20T01:13:19;102712.81;;;11.36;61.65
55456;BME280;63021;52.836;6.376;2023-05-20T01:15:47;102705.78;;;11.35;61.16
55456;BME280;63021;52.836;6.376;2023-05-20T01:18:14;102701.41;;;11.34;61.75
55456;BME280;63021;52.836;6.376;2023-05-20T01:20:42;102700.66;;;11.32;61.91
55456;BME280;63021;52.836;6.376;2023-05-20T01:23:10;102695.31;;;11.32;61.60
55456;BME280;63021;52.836;6.376;2023-05-20T01:25:35;102700.66;;;11.32;61.92
55456;BME280;63021;52.836;6.376;2023-05-20T01:28:01;102706.97;;;11.31;62.00
55456;BME280;63021;52.836;6.376;2023-05-20T01:30:31;102700.88;;;11.29;61.73
55456;BME280;63021;52.836;6.376;2023-05-20T01:33:01;102700.03;;;11.28;62.73
55456;BME280;63021;52.836;6.376;2023-05-20T01:35:29;102702.81;;;11.26;62.09
55456;BME280;63021;52.836;6.376;2023-05-20T01:37:56;102693.19;;;11.24;62.23
55456;BME280;63021;52.836;6.376;2023-05-20T01:40:22;102696.50;;;11.27;62.21
55456;BME280;63021;52.836;6.376;2023-05-20T01:42:48;102694.69;;;11.28;62.43
55456;BME280;63021;52.836;6.376;2023-05-20T01:45:17;102683.16;;;11.27;61.99
55456;BME280;63021;52.836;6.376;2023-05-20T01:47:47;102686.69;;;11.28;62.43
55456;BME280;63021;52.836;6.376;2023-05-20T01:50:13;102685.94;;;11.26;62.07
55456;BME280;63021;52.836;6.376;2023-05-20T01:52:39;102677.81;;;11.27;62.54
55456;BME280;63021;52.836;6.376;2023-05-20T01:55:05;102676.03;;;11.28;62.22
55456;BME280;63021;52.836;6.376;2023-05-20T01:57:30;102677.72;;;11.29;62.74
55456;BME280;63021;52.836;6.376;2023-05-20T01:59:56;102671.66;;;11.27;62.81
55456;BME280;63021;52.836;6.376;2023-05-20T02:02:21;102681.47;;;11.26;63.05
55456;BME280;63021;52.836;6.376;2023-05-20T02:04:48;102685.09;;;11.25;62.83
55456;BME280;63021;52.836;6.376;2023-05-20T02:07:15;102680.50;;;11.27;63.13
55456;BME280;63021;52.836;6.376;2023-05-20T02:09:43;102675.16;;;11.27;63.52
55456;BME280;63021;52.836;6.376;2023-05-20T02:12:08;102681.38;;;11.28;63.91
55456;BME280;63021;52.836;6.376;2023-05-20T02:14:34;102683.16;;;11.27;63.83
55456;BME280;63021;52.836;6.376;2023-05-20T02:16:59;102679.66;;;11.27;63.30
55456;BME280;63021;52.836;6.376;2023-05-20T02:19:25;102677.81;;;11.27;63.35
55456;BME280;63021;52.836;6.376;2023-05-20T02:21:50;102682.31;;;11.27;63.73
55456;BME280;63021;52.836;6.376;2023-05-20T02:24:16;102682.31;;;11.27;63.31
55456;BME280;63021;52.836;6.376;2023-05-20T02:26:41;102682.31;;;11.27;63.73
55456;BME280;63021;52.836;6.376;2023-05-20T02:29:08;102676.25;;;11.25;63.70
55456;BME280;63021;52.836;6.376;2023-05-20T02:31:33;102674.44;;;11.25;63.76
55456;BME280;63021;52.836;6.376;2023-05-20T02:33:59;102673.59;;;11.25;63.49
55456;BME280;63021;52.836;6.376;2023-05-20T02:36:25;102674.66;;;11.22;64.15
55456;BME280;63021;52.836;6.376;2023-05-20T02:38:52;102675.50;;;11.23;63.93
55456;BME280;63021;52.836;6.376;2023-05-20T02:41:21;102672.09;;;11.21;63.36
55456;BME280;63021;52.836;6.376;2023-05-20T02:43:46;102676.66;;;11.19;63.62
55456;BME280;63021;52.836;6.376;2023-05-20T02:46:11;102668.88;;;11.16;64.04
55456;BME280;63021;52.836;6.376;2023-05-20T02:48:37;102668.13;;;11.14;64.23
55456;BME280;63021;52.836;6.376;2023-05-20T02:51:02;102669.09;;;11.13;63.99
55456;BME280;63021;52.836;6.376;2023-05-20T02:53:27;102671.03;;;11.11;64.32
55456;BME280;63021;52.836;6.376;2023-05-20T02:55:53;102674.53;;;11.11;64.33
55456;BME280;63021;52.836;6.376;2023-05-20T02:58:18;102675.38;;;11.12;63.74
55456;BME280;63021;52.836;6.376;2023-05-20T03:00:51;102674.63;;;11.09;63.93
55456;BME280;63021;52.836;6.376;2023-05-20T03:03:16;102673.75;;;11.09;64.56
55456;BME280;63021;52.836;6.376;2023-05-20T03:05:42;102669.63;;;11.05;63.75
55456;BME280;63021;52.836;6.376;2023-05-20T03:08:10;102669.75;;;11.03;64.06
55456;BME280;63021;52.836;6.376;2023-05-20T03:10:37;102665.47;;;11.01;64.15
55456;BME280;63021;52.836;6.376;2023-05-20T03:13:05;102664.69;;;10.99;64.41
55456;BME280;63021;52.836;6.376;2023-05-20T03:15:36;102665.78;;;10.96;64.20
55456;BME280;63021;52.836;6.376;2023-05-20T03:18:02;102663.13;;;10.96;64.51
55456;BME280;63021;52.836;6.376;2023-05-20T03:20:27;102665.88;;;10.95;64.12
55456;BME280;63021;52.836;6.376;2023-05-20T03:22:54;102668.44;;;10.96;64.61
55456;BME280;63021;52.836;6.376;2023-05-20T03:25:21;102670.25;;;10.96;64.55
55456;BME280;63021;52.836;6.376;2023-05-20T03:27:46;102669.50;;;10.94;64.56
55456;BME280;63021;52.836;6.376;2023-05-20T03:30:12;102665.97;;;10.93;64.24
55456;BME280;63021;52.836;6.376;2023-05-20T03:32:38;102674.94;;;10.92;64.57
55456;BME280;63021;52.836;6.376;2023-05-20T03:35:04;102672.38;;;10.90;64.66
55456;BME280;63021;52.836;6.376;2023-05-20T03:37:30;102673.44;;;10.88;64.03
55456;BME280;63021;52.836;6.376;2023-05-20T03:39:55;102670.00;;;10.86;64.48
55456;BME280;63021;52.836;6.376;2023-05-20T03:42:20;102672.78;;;10.84;64.97
55456;BME280;63021;52.836;6.376;2023-05-20T03:44:46;102668.50;;;10.82;64.79
55456;BME280;63021;52.836;6.376;2023-05-20T03:47:11;102666.72;;;10.82;64.16
55456;BME280;63021;52.836;6.376;2023-05-20T03:49:36;102666.81;;;10.81;64.89
55456;BME280;63021;52.836;6.376;2023-05-20T03:52:03;102666.81;;;10.81;64.50
55456;BME280;63021;52.836;6.376;2023-05-20T03:54:29;102673.09;;;10.80;64.44
55456;BME280;63021;52.836;6.376;2023-05-20T03:56:55;102685.69;;;10.78;64.85
55456;BME280;63021;52.836;6.376;2023-05-20T03:59:21;102675.13;;;10.76;64.93
55456;BME280;63021;52.836;6.376;2023-05-20T04:01:47;102673.53;;;10.73;64.44
55456;BME280;63021;52.836;6.376;2023-05-20T04:04:12;102674.47;;;10.72;64.62
55456;BME280;63021;52.836;6.376;2023-05-20T04:06:38;102673.72;;;10.70;64.09
55456;BME280;63021;52.836;6.376;2023-05-20T04:09:04;102676.50;;;10.69;65.01
55456;BME280;63021;52.836;6.376;2023-05-20T04:11:30;102679.25;;;10.67;65.26
55456;BME280;63021;52.836;6.376;2023-05-20T04:13:55;102675.72;;;10.67;64.87
55456;BME280;63021;52.836;6.376;2023-05-20T04:16:22;102683.81;;;10.65;65.09
55456;BME280;63021;52.836;6.376;2023-05-20T04:18:48;102684.78;;;10.64;65.15
55456;BME280;63021;52.836;6.376;2023-05-20T04:21:13;102686.38;;;10.67;65.25
55456;BME280;63021;52.836;6.376;2023-05-20T04:23:39;102693.53;;;10.66;64.74
55456;BME280;63021;52.836;6.376;2023-05-20T04:26:04;102684.50;;;10.69;64.94
55456;BME280;63021;52.836;6.376;2023-05-20T04:28:30;102686.19;;;10.70;64.84
55456;BME280;63021;52.836;6.376;2023-05-20T04:31:01;102683.41;;;10.71;65.33
55456;BME280;63021;52.836;6.376;2023-05-20T04:33:28;102687.88;;;10.71;64.92
55456;BME280;63021;52.836;6.376;2023-05-20T04:35:54;102683.41;;;10.71;65.12
55456;BME280;63021;52.836;6.376;2023-05-20T04:38:25;102683.31;;;10.73;64.85
55456;BME280;63021;52.836;6.376;2023-05-20T04:40:55;102675.19;;;10.74;65.05
55456;BME280;63021;52.836;6.376;2023-05-20T04:43:25;102683.97;;;10.77;65.15
55456;BME280;63021;52.836;6.376;2023-05-20T04:45:57;102678.63;;;10.77;65.48
55456;BME280;63021;52.836;6.376;2023-05-20T04:48:24;102693.34;;;10.82;65.20
55456;BME280;63021;52.836;6.376;2023-05-20T04:50:51;102683.31;;;10.86;65.30
55456;BME280;63021;52.836;6.376;2023-05-20T04:53:18;102682.28;;;10.88;65.30
55456;BME280;63021;52.836;6.376;2023-05-20T04:55:44;102688.25;;;10.92;65.12
55456;BME280;63021;52.836;6.376;2023-05-20T04:58:10;102684.44;;;10.96;65.54
55456;BME280;63021;52.836;6.376;2023-05-20T05:00:49;102689.44;;;11.01;65.89
55456;BME280;63021;52.836;6.376;2023-05-20T05:03:15;102696.28;;;11.05;66.00
55456;BME280;63021;52.836;6.376;2023-05-20T05:05:42;102687.31;;;11.06;65.65
55456;BME280;63021;52.836;6.376;2023-05-20T05:08:08;102696.69;;;11.12;65.46
55456;BME280;63021;52.836;6.376;2023-05-20T05:10:34;102689.13;;;11.18;66.13
55456;BME280;63021;52.836;6.376;2023-05-20T05:13:00;102689.69;;;11.23;65.43
55456;BME280;63021;52.836;6.376;2023-05-20T05:15:26;102685.72;;;11.29;66.20
55456;BME280;63021;52.836;6.376;2023-05-20T05:17:52;102687.66;;;11.40;65.83
55456;BME280;63021;52.836;6.376;2023-05-20T05:20:17;102693.31;;;11.48;66.08
55456;BME280;63021;52.836;6.376;2023-05-20T05:22:43;102691.91;;;11.55;65.48
55456;BME280;63021;52.836;6.376;2023-05-20T05:25:10;102692.13;;;11.65;65.77
55456;BME280;63021;52.836;6.376;2023-05-20T05:27:35;102687.94;;;11.74;65.43
55456;BME280;63021;52.836;6.376;2023-05-20T05:30:02;102683.66;;;11.84;65.62
55456;BME280;63021;52.836;6.376;2023-05-20T05:32:27;102689.13;;;11.95;65.07
55456;BME280;63021;52.836;6.376;2023-05-20T05:34:53;102697.19;;;12.07;64.48
55456;BME280;63021;52.836;6.376;2023-05-20T05:37:19;102686.69;;;12.17;64.65
55456;BME280;63021;52.836;6.376;2023-05-20T05:39:45;102688.47;;;12.29;64.12
55456;BME280;63021;52.836;6.376;2023-05-20T05:42:10;102685.84;;;12.40;63.75
55456;BME280;63021;52.836;6.376;2023-05-20T05:44:36;102685.16;;;12.50;63.62
55456;BME280;63021;52.836;6.376;2023-05-20T05:47:01;102683.59;;;12.58;62.88
55456;BME280;63021;52.836;6.376;2023-05-20T05:49:26;102671.72;;;12.62;62.62
55456;BME280;63021;52.836;6.376;2023-05-20T05:51:52;102671.50;;;12.65;62.56
55456;BME280;63021;52.836;6.376;2023-05-20T05:54:17;102678.19;;;12.71;61.41
55456;BME280;63021;52.836;6.376;2023-05-20T05:56:44;102674.44;;;12.74;61.18
55456;BME280;63021;52.836;6.376;2023-05-20T05:59:10;102674.84;;;12.80;60.96
55456;BME280;63021;52.836;6.376;2023-05-20T06:01:35;102678.25;;;12.82;60.55
55456;BME280;63021;52.836;6.376;2023-05-20T06:04:01;102683.84;;;12.91;60.55
55456;BME280;63021;52.836;6.376;2023-05-20T06:06:27;102684.25;;;12.97;60.42
55456;BME280;63021;52.836;6.376;2023-05-20T06:08:52;102678.44;;;13.04;59.55
55456;BME280;63021;52.836;6.376;2023-05-20T06:11:18;102681.59;;;13.09;59.55
55456;BME280;63021;52.836;6.376;2023-05-20T06:13:43;102684.41;;;13.18;59.39
55456;BME280;63021;52.836;6.376;2023-05-20T06:16:09;102684.78;;;13.25;58.92
55456;BME280;63021;52.836;6.376;2023-05-20T06:18:34;102680.91;;;13.29;59.19
55456;BME280;63021;52.836;6.376;2023-05-20T06:20:59;102686.00;;;13.32;58.61
55456;BME280;63021;52.836;6.376;2023-05-20T06:23:25;102686.31;;;13.41;58.16
55456;BME280;63021;52.836;6.376;2023-05-20T06:25:51;102684.22;;;13.44;58.04
55456;BME280;63021;52.836;6.376;2023-05-20T06:28:16;102686.44;;;13.50;57.58
55456;BME280;63021;52.836;6.376;2023-05-20T06:30:42;102681.44;;;13.57;57.57
55456;BME280;63021;52.836;6.376;2023-05-20T06:33:07;102674.63;;;13.64;57.35
55456;BME280;63021;52.836;6.376;2023-05-20T06:35:33;102678.88;;;13.67;57.09
55456;BME280;63021;52.836;6.376;2023-05-20T06:38:01;102681.81;;;13.75;56.88
55456;BME280;63021;52.836;6.376;2023-05-20T06:40:27;102682.03;;;13.83;56.83
55456;BME280;63021;52.836;6.376;2023-05-20T06:42:53;102673.50;;;13.90;56.25
55456;BME280;63021;52.836;6.376;2023-05-20T06:45:18;102670.19;;;13.97;57.09
55456;BME280;63021;52.836;6.376;2023-05-20T06:47:44;102663.97;;;14.08;57.09
55456;BME280;63021;52.836;6.376;2023-05-20T06:50:10;102668.44;;;14.19;56.62
55456;BME280;63021;52.836;6.376;2023-05-20T06:52:36;102664.28;;;14.26;56.29
55456;BME280;63021;52.836;6.376;2023-05-20T06:55:02;102658.19;;;14.35;55.85
55456;BME280;63021;52.836;6.376;2023-05-20T06:57:28;102657.53;;;14.43;55.65
55456;BME280;63021;52.836;6.376;2023-05-20T06:59:53;102650.81;;;14.49;55.70
55456;BME280;63021;52.836;6.376;2023-05-20T07:02:20;102641.97;;;14.58;55.32
55456;BME280;63021;52.836;6.376;2023-05-20T07:04:45;102654.78;;;14.66;54.82
55456;BME280;63021;52.836;6.376;2023-05-20T07:07:11;102639.28;;;14.69;54.77
55456;BME280;63021;52.836;6.376;2023-05-20T07:09:36;102653.03;;;14.76;54.40
55456;BME280;63021;52.836;6.376;2023-05-20T07:12:02;102656.31;;;14.80;54.17
55456;BME280;63021;52.836;6.376;2023-05-20T07:14:28;102647.59;;;14.87;54.46
55456;BME280;63021;52.836;6.376;2023-05-20T07:16:53;102649.75;;;14.94;54.07
55456;BME280;63021;52.836;6.376;2023-05-20T07:19:18;102643.28;;;14.96;54.14
55456;BME280;63021;52.836;6.376;2023-05-20T07:21:44;102652.22;;;15.06;53.73
55456;BME280;63021;52.836;6.376;2023-05-20T07:24:09;102635.59;;;15.13;53.37
55456;BME280;63021;52.836;6.376;2023-05-20T07:27:02;102633.09;;;15.21;53.23
55456;BME280;63021;52.836;6.376;2023-05-20T07:29:28;102632.97;;;15.22;53.43
55456;BME280;63021;52.836;6.376;2023-05-20T07:31:53;102633.84;;;15.23;52.70
55456;BME280;63021;52.836;6.376;2023-05-20T07:34:18;102630.88;;;15.26;52.33
55456;BME280;63021;52.836;6.376;2023-05-20T07:36:44;102622.69;;;15.28;52.44
55456;BME280;63021;52.836;6.376;2023-05-20T07:39:10;102628.63;;;15.31;52.19
55456;BME280;63021;52.836;6.376;2023-05-20T07:41:36;102622.00;;;15.35;52.04
55456;BME280;63021;52.836;6.376;2023-05-20T07:44:04;102622.59;;;15.39;51.95
55456;BME280;63021;52.836;6.376;2023-05-20T07:46:30;102630.94;;;15.46;52.27
55456;BME280;63021;52.836;6.376;2023-05-20T07:48:55;102630.41;;;15.52;51.73
55456;BME280;63021;52.836;6.376;2023-05-20T07:51:21;102629.88;;;15.58;51.74
55456;BME280;63021;52.836;6.376;2023-05-20T07:53:47;102630.03;;;15.66;51.83
55456;BME280;63021;52.836;6.376;2023-05-20T07:56:13;102623.00;;;15.75;51.25
55456;BME280;63021;52.836;6.376;2023-05-20T07:58:42;102634.19;;;15.80;51.26
55456;BME280;63021;52.836;6.376;2023-05-20T08:01:08;102625.75;;;15.85;50.93
55456;BME280;63021;52.836;6.376;2023-05-20T08:03:34;102615.00;;;15.85;50.50
55456;BME280;63021;52.836;6.376;2023-05-20T08:06:01;102622.78;;;15.88;50.06
55456;BME280;63021;52.836;6.376;2023-05-20T08:08:27;102621.53;;;15.92;50.44
55456;BME280;63021;52.836;6.376;2023-05-20T08:10:54;102611.31;;;15.96;50.19
55456;BME280;63021;52.836;6.376;2023-05-20T08:13:20;102615.44;;;16.00;50.33
55456;BME280;63021;52.836;6.376;2023-05-20T08:15:45;102609.50;;;16.06;50.66
55456;BME280;63021;52.836;6.376;2023-05-20T08:18:12;102608.09;;;16.11;50.32
55456;BME280;63021;52.836;6.376;2023-05-20T08:20:39;102611.34;;;16.15;49.90
55456;BME280;63021;52.836;6.376;2023-05-20T08:23:07;102605.69;;;16.18;49.84
55456;BME280;63021;52.836;6.376;2023-05-20T08:25:33;102603.72;;;16.20;49.57
55456;BME280;63021;52.836;6.376;2023-05-20T08:28:01;102604.97;;;16.26;49.59
55456;BME280;63021;52.836;6.376;2023-05-20T08:30:28;102602.00;;;16.29;49.86
55456;BME280;63021;52.836;6.376;2023-05-20T08:32:53;102581.38;;;16.30;49.82
55456;BME280;63021;52.836;6.376;2023-05-20T08:35:19;102591.25;;;16.39;49.42
55456;BME280;63021;52.836;6.376;2023-05-20T08:37:44;102601.47;;;16.45;49.80
55456;BME280;63021;52.836;6.376;2023-05-20T08:40:10;102591.97;;;16.51;49.52
55456;BME280;63021;52.836;6.376;2023-05-20T08:42:40;102591.41;;;16.57;48.92
55456;BME280;63021;52.836;6.376;2023-05-20T08:45:06;102585.72;;;16.60;49.29
55456;BME280;63021;52.836;6.376;2023-05-20T08:47:35;102573.41;;;16.67;49.58
55456;BME280;63021;52.836;6.376;2023-05-20T08:50:00;102578.03;;;16.75;48.66
55456;BME280;63021;52.836;6.376;2023-05-20T08:52:27;102572.25;;;16.79;48.84
55456;BME280;63021;52.836;6.376;2023-05-20T08:54:54;102575.63;;;16.82;48.67
55456;BME280;63021;52.836;6.376;2023-05-20T08:57:20;102573.94;;;16.90;48.98
55456;BME280;63021;52.836;6.376;2023-05-20T08:59:46;102578.56;;;16.98;49.45
55456;BME280;63021;52.836;6.376;2023-05-20T09:02:12;102580.53;;;17.06;49.05
55456;BME280;63021;52.836;6.376;2023-05-20T09:04:38;102580.66;;;17.14;49.35
55456;BME280;63021;52.836;6.376;2023-05-20T09:07:03;102574.66;;;17.20;48.56
55456;BME280;63021;52.836;6.376;2023-05-20T09:09:31;102575.91;;;17.26;48.47
55456;BME280;63021;52.836;6.376;2023-05-20T09:11:58;102570.09;;;17.30;48.74
55456;BME280;63021;52.836;6.376;2023-05-20T09:14:24;102564.84;;;17.29;48.00
55456;BME280;63021;52.836;6.376;2023-05-20T09:16:51;102571.34;;;17.36;48.04
55456;BME280;63021;52.836;6.376;2023-05-20T09:19:18;102564.50;;;17.42;47.69
55456;BME280;63021;52.836;6.376;2023-05-20T09:21:45;102563.22;;;17.46;46.98
55456;BME280;63021;52.836;6.376;2023-05-20T09:24:12;102554.25;;;17.45;47.32
55456;BME280;63021;52.836;6.376;2023-05-20T09:26:37;102561.06;;;17.49;46.67
55456;BME280;63021;52.836;6.376;2023-05-20T09:29:03;102547.28;;;17.53;46.46
55456;BME280;63021;52.836;6.376;2023-05-20T09:31:32;102539.28;;;17.61;47.41
55456;BME280;63021;52.836;6.376;2023-05-20T09:34:01;102538.41;;;17.70;47.51
55456;BME280;63021;52.836;6.376;2023-05-20T09:36:28;102542.03;;;17.79;47.55
55456;BME280;63021;52.836;6.376;2023-05-20T09:39:02;102544.94;;;17.86;46.71
55456;BME280;63021;52.836;6.376;2023-05-20T09:41:37;102536.56;;;17.89;45.50
55456;BME280;63021;52.836;6.376;2023-05-20T09:44:03;102539.25;;;17.89;46.35
55456;BME280;63021;52.836;6.376;2023-05-20T09:46:31;102530.75;;;17.93;46.89
55456;BME280;63021;52.836;6.376;2023-05-20T09:48:58;102536.34;;;18.00;46.78
55456;BME280;63021;52.836;6.376;2023-05-20T09:51:26;102524.25;;;18.04;45.56
55456;BME280;63021;52.836;6.376;2023-05-20T09:53:52;102524.81;;;18.08;45.36
55456;BME280;63021;52.836;6.376;2023-05-20T09:56:19;102521.47;;;18.14;45.14
55456;BME280;63021;52.836;6.376;2023-05-20T09:58:46;102512.75;;;18.20;45.08
55456;BME280;63021;52.836;6.376;2023-05-20T10:01:13;102514.53;;;18.29;45.15
55456;BME280;63021;52.836;6.376;2023-05-20T10:03:44;102517.28;;;18.38;45.12
55456;BME280;63021;52.836;6.376;2023-05-20T10:14:27;102503.09;;;18.62;43.46
55456;BME280;63021;52.836;6.376;2023-05-20T10:17:09;102502.63;;;18.66;43.55
55456;BME280;63021;52.836;6.376;2023-05-20T10:19:37;102505.66;;;18.72;43.31
55456;BME280;63021;52.836;6.376;2023-05-20T10:22:07;102497.13;;;18.76;43.49
55456;BME280;63021;52.836;6.376;2023-05-20T10:24:35;102496.78;;;18.79;42.75
55456;BME280;63021;52.836;6.376;2023-05-20T10:27:03;102482.97;;;18.82;42.48
55456;BME280;63021;52.836;6.376;2023-05-20T10:29:29;102492.59;;;18.85;43.38
55456;BME280;63021;52.836;6.376;2023-05-20T10:32:06;102487.59;;;18.90;42.99
55456;BME280;63021;52.836;6.376;2023-05-20T10:34:44;102474.63;;;18.94;43.44
55456;BME280;63021;52.836;6.376;2023-05-20T10:37:21;102471.47;;;19.07;42.94
55456;BME280;63021;52.836;6.376;2023-05-20T10:42:49;102459.72;;;19.24;42.78
55456;BME280;63021;52.836;6.376;2023-05-20T10:45:28;102475.09;;;19.40;42.88
55456;BME280;63021;52.836;6.376;2023-05-20T10:47:55;102472.75;;;19.45;42.43
55456;BME280;63021;52.836;6.376;2023-05-20T10:50:33;102467.19;;;19.47;41.89
55456;BME280;63021;52.836;6.376;2023-05-20T10:53:06;102459.75;;;19.49;42.90
55456;BME280;63021;52.836;6.376;2023-05-20T10:55:36;102459.94;;;19.55;42.74
55456;BME280;63021;52.836;6.376;2023-05-20T10:58:03;102454.84;;;19.61;42.74
55456;BME280;63021;52.836;6.376;2023-05-20T11:00:30;102455.88;;;19.68;42.12
55456;BME280;63021;52.836;6.376;2023-05-20T11:02:56;102453.84;;;19.78;42.01
55456;BME280;63021;52.836;6.376;2023-05-20T11:05:21;102453.22;;;19.84;41.45
55456;BME280;63021;52.836;6.376;2023-05-20T11:07:47;102453.06;;;19.86;41.50
55456;BME280;63021;52.836;6.376;2023-05-20T11:10:12;102447.81;;;19.84;41.24
55456;BME280;63021;52.836;6.376;2023-05-20T11:12:38;102449.34;;;19.79;40.68
55456;BME280;63021;52.836;6.376;2023-05-20T11:15:04;102437.34;;;19.81;40.97
55456;BME280;63021;52.836;6.376;2023-05-20T11:17:29;102442.59;;;19.83;40.65
55456;BME280;63021;52.836;6.376;2023-05-20T11:19:55;102437.00;;;19.84;41.27
55456;BME280;63021;52.836;6.376;2023-05-20T11:22:25;102444.41;;;19.82;41.08
55456;BME280;63021;52.836;6.376;2023-05-20T11:24:52;102428.22;;;19.82;41.19
55456;BME280;63021;52.836;6.376;2023-05-20T11:27:18;102438.34;;;19.88;41.82
55456;BME280;63021;52.836;6.376;2023-05-20T11:29:43;102441.03;;;19.97;41.72
55456;BME280;63021;52.836;6.376;2023-05-20T11:32:09;102421.63;;;20.01;40.90
55456;BME280;63021;52.836;6.376;2023-05-20T11:34:35;102424.47;;;20.08;40.86
55456;BME280;63021;52.836;6.376;2023-05-20T11:37:01;102425.63;;;20.14;41.19
55456;BME280;63021;52.836;6.376;2023-05-20T11:39:30;102424.09;;;20.19;41.19
55456;BME280;63021;52.836;6.376;2023-05-20T11:41:56;102415.28;;;20.25;40.71
55456;BME280;63021;52.836;6.376;2023-05-20T11:44:22;102412.94;;;20.31;40.44
55456;BME280;63021;52.836;6.376;2023-05-20T11:46:48;102422.38;;;20.35;40.45
55456;BME280;63021;52.836;6.376;2023-05-20T11:49:14;102418.69;;;20.36;39.68
55456;BME280;63021;52.836;6.376;2023-05-20T11:51:40;102421.03;;;20.31;39.41
55456;BME280;63021;52.836;6.376;2023-05-20T11:54:07;102409.22;;;20.23;40.32
55456;BME280;63021;52.836;6.376;2023-05-20T11:56:34;102403.00;;;20.23;40.68
55456;BME280;63021;52.836;6.376;2023-05-20T11:59:02;102400.94;;;20.25;39.18
55456;BME280;63021;52.836;6.376;2023-05-20T12:01:36;102383.03;;;20.24;39.25
55456;BME280;63021;52.836;6.376;2023-05-20T12:04:04;102381.84;;;20.27;40.50
55456;BME280;63021;52.836;6.376;2023-05-20T12:06:31;102385.34;;;20.35;39.71
55456;BME280;63021;52.836;6.376;2023-05-20T12:09:01;102380.56;;;20.46;39.52
55456;BME280;63021;52.836;6.376;2023-05-20T12:11:36;102388.19;;;20.50;39.68
55456;BME280;63021;52.836;6.376;2023-05-20T12:14:05;102390.84;;;20.58;40.05
55456;BME280;63021;52.836;6.376;2023-05-20T12:16:34;102373.31;;;20.54;38.63
55456;BME280;63021;52.836;6.376;2023-05-20T12:19:00;102369.91;;;20.52;39.62
55456;BME280;63021;52.836;6.376;2023-05-20T12:21:27;102381.88;;;20.58;39.28
55456;BME280;63021;52.836;6.376;2023-05-20T12:23:52;102368.34;;;20.66;39.89
55456;BME280;63021;52.836;6.376;2023-05-20T12:26:25;102379.63;;;20.78;39.82
55456;BME280;63021;52.836;6.376;2023-05-20T12:28:51;102367.22;;;20.92;40.22
55456;BME280;63021;52.836;6.376;2023-05-20T12:31:17;102373.00;;;21.12;39.95
55456;BME280;63021;52.836;6.376;2023-05-20T12:33:42;102370.16;;;21.28;40.25
55456;BME280;63021;52.836;6.376;2023-05-20T12:36:08;102360.78;;;21.39;39.67
55456;BME280;63021;52.836;6.376;2023-05-20T12:38:33;102363.91;;;21.51;39.37
55456;BME280;63021;52.836;6.376;2023-05-20T12:40:58;102364.31;;;21.63;39.34
55456;BME280;63021;52.836;6.376;2023-05-20T12:43:24;102359.00;;;21.70;39.05
55456;BME280;63021;52.836;6.376;2023-05-20T12:45:50;102354.53;;;21.77;38.48
55456;BME280;63021;52.836;6.376;2023-05-20T12:48:16;102352.28;;;21.80;37.68
55456;BME280;63021;52.836;6.376;2023-05-20T12:50:41;102350.25;;;21.83;37.74
55456;BME280;63021;52.836;6.376;2023-05-20T12:53:07;102358.06;;;21.77;37.55
55456;BME280;63021;52.836;6.376;2023-05-20T12:55:33;102346.47;;;21.69;37.31
55456;BME280;63021;52.836;6.376;2023-05-20T12:57:58;102344.13;;;21.66;37.28